Norfolk Ns (Chambers Fld) Airport
KNGU : now visible

Airfield :











YOU CAN JOIN US ON...

 
LOGIN :

Register | Disclaimer

   EN    FR    IT 

 









Legend :    VFR   Marginal VFR   IFR   Intensive IFR   Very Intensive IFR
Visi :
Ceiling :
>= 8 km
>= 3000ft
5 to 8 km
1000 to 3000 ft
1500m to 5 km
500 to 1000 ft
800 to 1500m
200 to 500 ft
< 800m
< 200 ft
Symbols :   Thunderstorms  Fog  Heavy snow  Heavy precipitations  Wind > 20 kt






- Airport Elevation : 17 ft


KNGU - Norfolk Ns (Chambers Fld)

CURRENT METAR :
  • 061859Z 02008KT 10SM OVC060 11/03 A3006 RMK AO2 SLP178 T01060028

EXPIRED METARs :
  • 061759Z 36013KT 10SM BKN060 13/01 A3004 RMK AO2 SLP171 T01280011 10144 20067 50002
  • 061659Z 34016G20KT 10SM CLR 13/02 A3004 RMK AO2 SLP173 T01330017

TAF TAF KNGU
Valid from the 06 at 15:00 until the 07 at 15:00 UTC


0615/0715 34015G22KT 9999 BKN085 QNH2999INS
FM061800 34016G23KT 9999 FEW035 BKN050 QNH3004INS
BECMG 0622/0700 35010KT 9999 SCT025 QNH3015INS
FM071100 VRB06KT 9999 FEW250 QNH3034INS T13/0618Z T04/0710Z FN20075
KZDC FIR / North America



MET'MAP, your aeronautical weather chart ! - Copyright ORBIFLY December 2007 - Disclaimer

ORBIFLY MET'MAP TEAM :

Programming & Development : Alexandra Zaïnal
Original concept : Baudouin d'Aumeries
Technical & hardware support : Manuel Goepfert
Assistance : Marc-Olivier Méhu




SOURCES & CREDITS :

   NOAA       Earth
Advisory